sensor_id;sensor_type;location;lat;lon;timestamp;P1;durP1;ratioP1;P2;durP2;ratioP2
78901;SDS011;70441;44.758;37.686;2024-03-23T00:52:53;16.83;;;6.85;;
78901;SDS011;70441;44.758;37.686;2024-03-23T00:53:55;15.45;;;6.72;;
78901;SDS011;70441;44.758;37.686;2024-03-23T00:54:57;15.65;;;6.30;;
78901;SDS011;70441;44.758;37.686;2024-03-23T00:55:58;14.98;;;6.55;;
78901;SDS011;70441;44.758;37.686;2024-03-23T00:57:00;13.73;;;6.25;;
78901;SDS011;70441;44.758;37.686;2024-03-23T00:58:01;16.23;;;6.65;;
78901;SDS011;70441;44.758;37.686;2024-03-23T00:59:04;13.18;;;5.88;;
78901;SDS011;70441;44.758;37.686;2024-03-23T01:00:06;15.50;;;6.40;;
78901;SDS011;70441;44.758;37.686;2024-03-23T01:01:07;13.30;;;5.93;;
78901;SDS011;70441;44.758;37.686;2024-03-23T01:02:09;13.48;;;5.85;;
78901;SDS011;70441;44.758;37.686;2024-03-23T01:03:10;13.75;;;6.05;;
78901;SDS011;70441;44.758;37.686;2024-03-23T01:04:11;12.88;;;5.28;;
78901;SDS011;70441;44.758;37.686;2024-03-23T01:05:13;17.13;;;6.30;;
78901;SDS011;70441;44.758;37.686;2024-03-23T01:06:14;11.27;;;5.07;;
78901;SDS011;70441;44.758;37.686;2024-03-23T01:07:16;13.88;;;5.53;;
78901;SDS011;70441;44.758;37.686;2024-03-23T01:08:17;12.40;;;5.40;;
78901;SDS011;70441;44.758;37.686;2024-03-23T01:09:18;13.73;;;5.68;;
78901;SDS011;70441;44.758;37.686;2024-03-23T01:10:20;11.00;;;4.90;;
78901;SDS011;70441;44.758;37.686;2024-03-23T01:11:21;12.15;;;5.25;;
78901;SDS011;70441;44.758;37.686;2024-03-23T01:12:23;14.27;;;6.05;;
78901;SDS011;70441;44.758;37.686;2024-03-23T01:13:24;12.32;;;5.45;;
78901;SDS011;70441;44.758;37.686;2024-03-23T01:14:26;12.07;;;5.30;;
78901;SDS011;70441;44.758;37.686;2024-03-23T01:15:27;15.68;;;5.95;;
78901;SDS011;70441;44.758;37.686;2024-03-23T01:16:28;12.80;;;5.38;;
78901;SDS011;70441;44.758;37.686;2024-03-23T01:17:30;15.02;;;5.63;;
78901;SDS011;70441;44.758;37.686;2024-03-23T01:18:31;14.68;;;6.35;;
78901;SDS011;70441;44.758;37.686;2024-03-23T01:19:33;11.70;;;4.90;;
78901;SDS011;70441;44.758;37.686;2024-03-23T01:20:35;13.90;;;6.25;;
78901;SDS011;70441;44.758;37.686;2024-03-23T01:21:36;14.73;;;6.30;;
78901;SDS011;70441;44.758;37.686;2024-03-23T01:22:38;12.90;;;5.88;;
78901;SDS011;70441;44.758;37.686;2024-03-23T01:23:39;13.23;;;5.60;;
78901;SDS011;70441;44.758;37.686;2024-03-23T01:24:41;12.13;;;6.00;;
78901;SDS011;70441;44.758;37.686;2024-03-23T01:25:51;13.00;;;5.68;;
78901;SDS011;70441;44.758;37.686;2024-03-23T01:26:54;14.07;;;6.20;;
78901;SDS011;70441;44.758;37.686;2024-03-23T01:28:00;10.98;;;5.03;;
78901;SDS011;70441;44.758;37.686;2024-03-23T01:29:02;13.20;;;6.03;;
78901;SDS011;70441;44.758;37.686;2024-03-23T01:30:03;12.65;;;5.40;;
78901;SDS011;70441;44.758;37.686;2024-03-23T01:31:05;14.48;;;6.15;;
78901;SDS011;70441;44.758;37.686;2024-03-23T01:32:06;13.82;;;5.95;;
78901;SDS011;70441;44.758;37.686;2024-03-23T01:33:08;13.02;;;5.68;;
78901;SDS011;70441;44.758;37.686;2024-03-23T01:34:09;12.82;;;5.40;;
78901;SDS011;70441;44.758;37.686;2024-03-23T01:35:11;14.80;;;6.05;;
78901;SDS011;70441;44.758;37.686;2024-03-23T01:36:12;13.18;;;5.97;;
78901;SDS011;70441;44.758;37.686;2024-03-23T01:37:13;13.80;;;5.72;;
78901;SDS011;70441;44.758;37.686;2024-03-23T01:38:15;14.15;;;6.40;;
78901;SDS011;70441;44.758;37.686;2024-03-23T01:39:17;15.00;;;6.10;;
78901;SDS011;70441;44.758;37.686;2024-03-23T01:40:18;12.77;;;5.68;;
78901;SDS011;70441;44.758;37.686;2024-03-23T01:41:20;14.75;;;5.60;;
78901;SDS011;70441;44.758;37.686;2024-03-23T01:42:22;14.43;;;6.03;;
78901;SDS011;70441;44.758;37.686;2024-03-23T01:43:24;15.55;;;6.22;;
78901;SDS011;70441;44.758;37.686;2024-03-23T01:44:26;14.30;;;6.28;;
78901;SDS011;70441;44.758;37.686;2024-03-23T01:45:27;13.20;;;5.82;;
78901;SDS011;70441;44.758;37.686;2024-03-23T01:46:29;15.30;;;5.78;;
78901;SDS011;70441;44.758;37.686;2024-03-23T01:47:31;14.63;;;6.10;;
78901;SDS011;70441;44.758;37.686;2024-03-23T01:48:32;15.93;;;6.25;;
78901;SDS011;70441;44.758;37.686;2024-03-23T01:49:34;15.00;;;6.13;;
78901;SDS011;70441;44.758;37.686;2024-03-23T01:50:36;13.00;;;5.57;;
78901;SDS011;70441;44.758;37.686;2024-03-23T01:51:37;15.82;;;6.65;;
78901;SDS011;70441;44.758;37.686;2024-03-23T01:52:39;13.57;;;6.03;;
78901;SDS011;70441;44.758;37.686;2024-03-23T01:53:41;14.60;;;6.20;;
78901;SDS011;70441;44.758;37.686;2024-03-23T01:54:43;13.50;;;6.03;;
78901;SDS011;70441;44.758;37.686;2024-03-23T01:56:47;15.60;;;6.47;;
78901;SDS011;70441;44.758;37.686;2024-03-23T01:57:50;14.35;;;6.13;;
78901;SDS011;70441;44.758;37.686;2024-03-23T01:58:52;14.85;;;6.45;;
78901;SDS011;70441;44.758;37.686;2024-03-23T01:59:53;17.30;;;7.07;;
78901;SDS011;70441;44.758;37.686;2024-03-23T02:01:01;16.08;;;6.55;;
78901;SDS011;70441;44.758;37.686;2024-03-23T02:02:03;14.05;;;5.75;;
78901;SDS011;70441;44.758;37.686;2024-03-23T02:03:21;15.93;;;6.32;;
78901;SDS011;70441;44.758;37.686;2024-03-23T02:04:29;12.80;;;5.85;;
78901;SDS011;70441;44.758;37.686;2024-03-23T02:05:31;15.73;;;6.72;;
78901;SDS011;70441;44.758;37.686;2024-03-23T02:06:32;16.48;;;6.47;;
78901;SDS011;70441;44.758;37.686;2024-03-23T02:07:34;14.35;;;6.25;;
78901;SDS011;70441;44.758;37.686;2024-03-23T02:08:36;15.30;;;6.97;;
78901;SDS011;70441;44.758;37.686;2024-03-23T02:09:38;15.25;;;6.25;;
78901;SDS011;70441;44.758;37.686;2024-03-23T02:10:39;15.82;;;6.60;;
78901;SDS011;70441;44.758;37.686;2024-03-23T02:11:41;15.30;;;6.50;;
78901;SDS011;70441;44.758;37.686;2024-03-23T02:12:43;12.02;;;5.38;;
78901;SDS011;70441;44.758;37.686;2024-03-23T02:13:44;14.48;;;6.38;;
78901;SDS011;70441;44.758;37.686;2024-03-23T02:14:46;14.48;;;6.85;;
78901;SDS011;70441;44.758;37.686;2024-03-23T02:15:48;14.52;;;6.47;;
78901;SDS011;70441;44.758;37.686;2024-03-23T02:16:50;15.10;;;6.57;;
78901;SDS011;70441;44.758;37.686;2024-03-23T02:17:52;15.15;;;5.88;;
78901;SDS011;70441;44.758;37.686;2024-03-23T02:18:53;14.15;;;6.30;;
78901;SDS011;70441;44.758;37.686;2024-03-23T02:19:55;14.55;;;6.28;;
78901;SDS011;70441;44.758;37.686;2024-03-23T02:20:56;14.90;;;6.43;;
78901;SDS011;70441;44.758;37.686;2024-03-23T02:21:58;13.70;;;5.82;;
78901;SDS011;70441;44.758;37.686;2024-03-23T02:23:00;17.35;;;6.97;;
78901;SDS011;70441;44.758;37.686;2024-03-23T02:24:02;14.63;;;5.75;;
78901;SDS011;70441;44.758;37.686;2024-03-23T02:25:04;14.20;;;5.63;;
78901;SDS011;70441;44.758;37.686;2024-03-23T02:27:07;11.88;;;4.97;;
78901;SDS011;70441;44.758;37.686;2024-03-23T02:28:09;11.88;;;5.05;;
78901;SDS011;70441;44.758;37.686;2024-03-23T02:29:12;10.45;;;5.00;;
78901;SDS011;70441;44.758;37.686;2024-03-23T02:30:13;11.35;;;4.60;;
78901;SDS011;70441;44.758;37.686;2024-03-23T02:31:15;12.27;;;4.80;;
78901;SDS011;70441;44.758;37.686;2024-03-23T02:32:17;12.85;;;5.30;;
78901;SDS011;70441;44.758;37.686;2024-03-23T02:33:18;14.07;;;5.45;;
78901;SDS011;70441;44.758;37.686;2024-03-23T02:34:20;13.63;;;5.00;;
78901;SDS011;70441;44.758;37.686;2024-03-23T02:35:22;14.38;;;5.28;;
78901;SDS011;70441;44.758;37.686;2024-03-23T02:36:23;10.52;;;4.45;;
78901;SDS011;70441;44.758;37.686;2024-03-23T02:37:25;11.20;;;4.72;;
78901;SDS011;70441;44.758;37.686;2024-03-23T02:38:27;12.00;;;5.47;;
78901;SDS011;70441;44.758;37.686;2024-03-23T02:39:28;12.38;;;5.13;;
78901;SDS011;70441;44.758;37.686;2024-03-23T02:40:30;12.75;;;5.32;;
78901;SDS011;70441;44.758;37.686;2024-03-23T02:41:32;13.68;;;5.35;;
78901;SDS011;70441;44.758;37.686;2024-03-23T02:42:33;11.50;;;4.85;;
78901;SDS011;70441;44.758;37.686;2024-03-23T02:43:35;13.15;;;4.85;;
78901;SDS011;70441;44.758;37.686;2024-03-23T02:44:37;10.68;;;4.55;;
78901;SDS011;70441;44.758;37.686;2024-03-23T02:45:38;12.75;;;5.25;;
78901;SDS011;70441;44.758;37.686;2024-03-23T02:46:40;13.10;;;5.05;;
78901;SDS011;70441;44.758;37.686;2024-03-23T02:47:42;13.45;;;5.50;;
78901;SDS011;70441;44.758;37.686;2024-03-23T02:48:44;13.02;;;5.32;;
78901;SDS011;70441;44.758;37.686;2024-03-23T02:49:45;12.90;;;5.10;;
78901;SDS011;70441;44.758;37.686;2024-03-23T02:50:47;12.13;;;5.20;;
78901;SDS011;70441;44.758;37.686;2024-03-23T02:51:49;12.23;;;5.65;;
78901;SDS011;70441;44.758;37.686;2024-03-23T02:52:51;12.27;;;5.00;;
78901;SDS011;70441;44.758;37.686;2024-03-23T02:53:53;11.23;;;4.55;;
78901;SDS011;70441;44.758;37.686;2024-03-23T02:54:55;14.30;;;5.35;;
78901;SDS011;70441;44.758;37.686;2024-03-23T02:55:59;13.13;;;5.43;;
78901;SDS011;70441;44.758;37.686;2024-03-23T02:57:01;12.30;;;5.43;;
78901;SDS011;70441;44.758;37.686;2024-03-23T02:58:02;13.77;;;6.72;;
78901;SDS011;70441;44.758;37.686;2024-03-23T02:59:04;14.80;;;5.55;;
78901;SDS011;70441;44.758;37.686;2024-03-23T03:00:06;13.00;;;5.45;;
78901;SDS011;70441;44.758;37.686;2024-03-23T03:02:10;14.75;;;5.50;;
78901;SDS011;70441;44.758;37.686;2024-03-23T03:03:12;12.80;;;5.47;;
78901;SDS011;70441;44.758;37.686;2024-03-23T03:04:14;12.35;;;5.32;;
78901;SDS011;70441;44.758;37.686;2024-03-23T03:05:16;13.45;;;5.53;;
78901;SDS011;70441;44.758;37.686;2024-03-23T03:06:24;15.30;;;6.15;;
78901;SDS011;70441;44.758;37.686;2024-03-23T03:08:28;15.57;;;5.35;;
78901;SDS011;70441;44.758;37.686;2024-03-23T03:09:30;16.65;;;6.40;;
78901;SDS011;70441;44.758;37.686;2024-03-23T03:10:31;15.30;;;6.47;;
78901;SDS011;70441;44.758;37.686;2024-03-23T03:11:35;14.32;;;5.93;;
78901;SDS011;70441;44.758;37.686;2024-03-23T03:12:37;14.05;;;6.25;;
78901;SDS011;70441;44.758;37.686;2024-03-23T03:13:39;12.90;;;5.75;;
78901;SDS011;70441;44.758;37.686;2024-03-23T03:14:40;13.50;;;5.88;;
78901;SDS011;70441;44.758;37.686;2024-03-23T03:15:43;13.65;;;5.63;;
78901;SDS011;70441;44.758;37.686;2024-03-23T03:16:45;16.50;;;5.88;;
78901;SDS011;70441;44.758;37.686;2024-03-23T03:17:46;14.55;;;6.00;;
78901;SDS011;70441;44.758;37.686;2024-03-23T03:18:48;14.68;;;5.10;;
78901;SDS011;70441;44.758;37.686;2024-03-23T03:19:50;12.93;;;5.55;;
78901;SDS011;70441;44.758;37.686;2024-03-23T03:20:56;13.73;;;5.38;;
78901;SDS011;70441;44.758;37.686;2024-03-23T03:21:58;12.73;;;5.18;;
78901;SDS011;70441;44.758;37.686;2024-03-23T03:23:00;13.77;;;5.75;;
78901;SDS011;70441;44.758;37.686;2024-03-23T03:24:02;12.80;;;4.85;;
78901;SDS011;70441;44.758;37.686;2024-03-23T03:25:03;11.45;;;4.82;;
78901;SDS011;70441;44.758;37.686;2024-03-23T03:26:07;13.10;;;5.88;;
78901;SDS011;70441;44.758;37.686;2024-03-23T03:27:09;12.70;;;5.82;;
78901;SDS011;70441;44.758;37.686;2024-03-23T03:28:11;11.20;;;4.75;;
78901;SDS011;70441;44.758;37.686;2024-03-23T03:29:12;16.98;;;8.70;;
78901;SDS011;70441;44.758;37.686;2024-03-23T03:30:14;13.18;;;6.30;;
78901;SDS011;70441;44.758;37.686;2024-03-23T03:31:16;14.07;;;6.38;;
78901;SDS011;70441;44.758;37.686;2024-03-23T03:32:18;14.60;;;7.03;;
78901;SDS011;70441;44.758;37.686;2024-03-23T03:33:19;16.20;;;7.72;;
78901;SDS011;70441;44.758;37.686;2024-03-23T03:34:21;13.98;;;5.97;;
78901;SDS011;70441;44.758;37.686;2024-03-23T03:35:23;12.98;;;6.40;;
78901;SDS011;70441;44.758;37.686;2024-03-23T03:36:25;14.43;;;6.82;;
78901;SDS011;70441;44.758;37.686;2024-03-23T03:37:26;14.05;;;6.60;;
78901;SDS011;70441;44.758;37.686;2024-03-23T03:38:28;13.48;;;6.07;;
78901;SDS011;70441;44.758;37.686;2024-03-23T03:39:30;12.80;;;5.45;;
78901;SDS011;70441;44.758;37.686;2024-03-23T03:40:31;12.10;;;5.32;;
78901;SDS011;70441;44.758;37.686;2024-03-23T03:41:33;13.25;;;5.22;;
78901;SDS011;70441;44.758;37.686;2024-03-23T03:42:34;13.57;;;5.80;;
78901;SDS011;70441;44.758;37.686;2024-03-23T03:43:36;13.55;;;5.82;;
78901;SDS011;70441;44.758;37.686;2024-03-23T03:45:40;11.13;;;4.47;;
78901;SDS011;70441;44.758;37.686;2024-03-23T03:46:42;11.43;;;4.95;;
78901;SDS011;70441;44.758;37.686;2024-03-23T03:47:44;15.15;;;5.90;;
78901;SDS011;70441;44.758;37.686;2024-03-23T03:48:46;15.95;;;6.18;;
78901;SDS011;70441;44.758;37.686;2024-03-23T03:49:49;13.55;;;5.63;;
78901;SDS011;70441;44.758;37.686;2024-03-23T03:50:51;14.02;;;5.47;;
78901;SDS011;70441;44.758;37.686;2024-03-23T03:51:54;14.60;;;6.25;;
78901;SDS011;70441;44.758;37.686;2024-03-23T03:52:55;14.85;;;5.75;;
78901;SDS011;70441;44.758;37.686;2024-03-23T03:54:03;13.60;;;5.38;;
78901;SDS011;70441;44.758;37.686;2024-03-23T03:55:32;12.73;;;5.50;;
78901;SDS011;70441;44.758;37.686;2024-03-23T03:56:33;13.60;;;5.80;;
78901;SDS011;70441;44.758;37.686;2024-03-23T03:57:35;13.93;;;5.63;;
78901;SDS011;70441;44.758;37.686;2024-03-23T03:58:37;12.68;;;4.57;;
78901;SDS011;70441;44.758;37.686;2024-03-23T03:59:38;12.48;;;5.20;;
78901;SDS011;70441;44.758;37.686;2024-03-23T04:00:40;12.48;;;5.22;;
78901;SDS011;70441;44.758;37.686;2024-03-23T04:01:42;13.23;;;5.07;;
78901;SDS011;70441;44.758;37.686;2024-03-23T04:02:44;11.82;;;5.07;;
78901;SDS011;70441;44.758;37.686;2024-03-23T04:03:45;13.98;;;5.85;;
78901;SDS011;70441;44.758;37.686;2024-03-23T04:04:47;13.75;;;5.28;;
78901;SDS011;70441;44.758;37.686;2024-03-23T04:05:52;12.95;;;5.18;;
78901;SDS011;70441;44.758;37.686;2024-03-23T04:06:59;12.63;;;5.07;;
78901;SDS011;70441;44.758;37.686;2024-03-23T04:08:02;15.50;;;5.18;;
78901;SDS011;70441;44.758;37.686;2024-03-23T04:09:03;12.48;;;5.00;;
78901;SDS011;70441;44.758;37.686;2024-03-23T04:10:05;12.95;;;4.68;;
78901;SDS011;70441;44.758;37.686;2024-03-23T04:11:09;13.45;;;6.00;;
78901;SDS011;70441;44.758;37.686;2024-03-23T04:12:11;14.85;;;5.25;;
78901;SDS011;70441;44.758;37.686;2024-03-23T04:13:12;14.68;;;5.82;;
78901;SDS011;70441;44.758;37.686;2024-03-23T04:14:14;13.98;;;5.65;;
78901;SDS011;70441;44.758;37.686;2024-03-23T04:15:16;12.18;;;5.10;;
78901;SDS011;70441;44.758;37.686;2024-03-23T04:16:24;13.57;;;5.70;;
78901;SDS011;70441;44.758;37.686;2024-03-23T04:17:30;13.02;;;5.32;;
78901;SDS011;70441;44.758;37.686;2024-03-23T04:18:34;12.40;;;4.30;;
78901;SDS011;70441;44.758;37.686;2024-03-23T04:19:36;13.35;;;4.85;;
78901;SDS011;70441;44.758;37.686;2024-03-23T04:20:38;12.38;;;5.05;;
78901;SDS011;70441;44.758;37.686;2024-03-23T04:21:49;12.88;;;5.22;;
78901;SDS011;70441;44.758;37.686;2024-03-23T04:22:59;13.93;;;4.93;;
78901;SDS011;70441;44.758;37.686;2024-03-23T04:24:00;10.30;;;4.32;;
78901;SDS011;70441;44.758;37.686;2024-03-23T04:25:02;13.40;;;5.18;;
78901;SDS011;70441;44.758;37.686;2024-03-23T04:26:07;14.13;;;4.35;;
78901;SDS011;70441;44.758;37.686;2024-03-23T04:27:09;14.35;;;4.60;;
78901;SDS011;70441;44.758;37.686;2024-03-23T04:28:11;11.20;;;4.15;;
78901;SDS011;70441;44.758;37.686;2024-03-23T04:29:12;11.55;;;4.35;;
78901;SDS011;70441;44.758;37.686;2024-03-23T04:30:14;11.68;;;4.30;;
78901;SDS011;70441;44.758;37.686;2024-03-23T04:31:16;10.80;;;4.07;;
78901;SDS011;70441;44.758;37.686;2024-03-23T04:32:18;10.05;;;4.13;;
78901;SDS011;70441;44.758;37.686;2024-03-23T04:33:20;10.38;;;4.18;;
78901;SDS011;70441;44.758;37.686;2024-03-23T04:34:21;10.35;;;4.05;;
78901;SDS011;70441;44.758;37.686;2024-03-23T04:36:28;10.32;;;4.00;;
78901;SDS011;70441;44.758;37.686;2024-03-23T04:37:30;11.43;;;4.57;;
78901;SDS011;70441;44.758;37.686;2024-03-23T04:38:31;10.45;;;4.22;;
78901;SDS011;70441;44.758;37.686;2024-03-23T04:39:33;11.45;;;4.28;;
78901;SDS011;70441;44.758;37.686;2024-03-23T04:40:34;10.80;;;4.32;;
78901;SDS011;70441;44.758;37.686;2024-03-23T04:41:36;10.23;;;3.95;;
78901;SDS011;70441;44.758;37.686;2024-03-23T04:42:38;10.30;;;4.15;;
78901;SDS011;70441;44.758;37.686;2024-03-23T04:43:39;10.68;;;3.97;;
78901;SDS011;70441;44.758;37.686;2024-03-23T04:44:41;9.45;;;4.00;;
78901;SDS011;70441;44.758;37.686;2024-03-23T04:45:43;9.63;;;4.20;;
78901;SDS011;70441;44.758;37.686;2024-03-23T04:46:44;10.73;;;4.20;;
78901;SDS011;70441;44.758;37.686;2024-03-23T04:47:48;8.77;;;3.72;;
78901;SDS011;70441;44.758;37.686;2024-03-23T04:48:49;9.10;;;3.60;;
78901;SDS011;70441;44.758;37.686;2024-03-23T04:49:52;12.23;;;4.25;;
78901;SDS011;70441;44.758;37.686;2024-03-23T04:50:54;12.60;;;4.88;;
78901;SDS011;70441;44.758;37.686;2024-03-23T04:51:58;9.75;;;4.20;;
78901;SDS011;70441;44.758;37.686;2024-03-23T04:53:00;9.18;;;3.75;;
78901;SDS011;70441;44.758;37.686;2024-03-23T04:54:02;10.95;;;4.22;;
78901;SDS011;70441;44.758;37.686;2024-03-23T04:55:06;14.27;;;4.18;;
78901;SDS011;70441;44.758;37.686;2024-03-23T04:56:08;10.70;;;4.15;;
78901;SDS011;70441;44.758;37.686;2024-03-23T04:57:11;11.52;;;4.30;;
78901;SDS011;70441;44.758;37.686;2024-03-23T04:58:12;11.10;;;4.60;;
78901;SDS011;70441;44.758;37.686;2024-03-23T04:59:14;8.93;;;3.55;;
78901;SDS011;70441;44.758;37.686;2024-03-23T05:00:16;9.75;;;4.13;;
78901;SDS011;70441;44.758;37.686;2024-03-23T05:02:20;13.88;;;4.28;;
78901;SDS011;70441;44.758;37.686;2024-03-23T05:03:23;11.68;;;4.78;;
78901;SDS011;70441;44.758;37.686;2024-03-23T05:04:25;13.63;;;4.82;;
78901;SDS011;70441;44.758;37.686;2024-03-23T05:05:27;11.93;;;3.70;;
78901;SDS011;70441;44.758;37.686;2024-03-23T05:06:29;12.63;;;3.95;;
78901;SDS011;70441;44.758;37.686;2024-03-23T05:07:31;11.18;;;3.60;;
78901;SDS011;70441;44.758;37.686;2024-03-23T05:08:33;14.73;;;4.63;;
78901;SDS011;70441;44.758;37.686;2024-03-23T05:09:34;9.85;;;4.45;;
78901;SDS011;70441;44.758;37.686;2024-03-23T05:10:36;11.05;;;4.30;;
78901;SDS011;70441;44.758;37.686;2024-03-23T05:11:38;10.73;;;3.90;;
78901;SDS011;70441;44.758;37.686;2024-03-23T05:12:40;11.02;;;4.20;;
78901;SDS011;70441;44.758;37.686;2024-03-23T05:13:43;10.75;;;4.38;;
78901;SDS011;70441;44.758;37.686;2024-03-23T05:14:45;11.13;;;4.10;;
78901;SDS011;70441;44.758;37.686;2024-03-23T05:15:51;11.32;;;4.43;;
78901;SDS011;70441;44.758;37.686;2024-03-23T05:16:54;11.15;;;4.60;;
78901;SDS011;70441;44.758;37.686;2024-03-23T05:17:57;10.27;;;4.20;;
78901;SDS011;70441;44.758;37.686;2024-03-23T05:18:58;11.70;;;4.43;;
78901;SDS011;70441;44.758;37.686;2024-03-23T05:20:01;11.63;;;4.68;;
78901;SDS011;70441;44.758;37.686;2024-03-23T05:21:04;10.45;;;4.35;;
78901;SDS011;70441;44.758;37.686;2024-03-23T05:22:05;10.65;;;4.43;;
78901;SDS011;70441;44.758;37.686;2024-03-23T05:23:07;12.55;;;4.30;;
78901;SDS011;70441;44.758;37.686;2024-03-23T05:24:09;11.77;;;4.55;;
78901;SDS011;70441;44.758;37.686;2024-03-23T05:25:10;9.93;;;3.95;;
78901;SDS011;70441;44.758;37.686;2024-03-23T05:26:12;7.28;;;2.88;;
78901;SDS011;70441;44.758;37.686;2024-03-23T05:28:16;8.70;;;3.08;;
78901;SDS011;70441;44.758;37.686;2024-03-23T05:29:18;9.35;;;3.63;;
78901;SDS011;70441;44.758;37.686;2024-03-23T05:30:19;8.57;;;3.28;;
78901;SDS011;70441;44.758;37.686;2024-03-23T05:31:25;9.43;;;3.67;;
78901;SDS011;70441;44.758;37.686;2024-03-23T05:32:27;8.80;;;3.38;;
78901;SDS011;70441;44.758;37.686;2024-03-23T05:33:29;9.15;;;3.40;;
78901;SDS011;70441;44.758;37.686;2024-03-23T05:34:30;8.25;;;3.38;;
78901;SDS011;70441;44.758;37.686;2024-03-23T05:35:32;8.07;;;3.05;;
78901;SDS011;70441;44.758;37.686;2024-03-23T05:36:34;9.75;;;3.58;;
78901;SDS011;70441;44.758;37.686;2024-03-23T05:37:35;9.75;;;3.80;;
78901;SDS011;70441;44.758;37.686;2024-03-23T05:38:38;9.90;;;3.90;;
78901;SDS011;70441;44.758;37.686;2024-03-23T05:39:40;9.70;;;4.05;;
78901;SDS011;70441;44.758;37.686;2024-03-23T05:40:42;10.75;;;3.63;;
78901;SDS011;70441;44.758;37.686;2024-03-23T05:41:57;11.80;;;3.83;;
78901;SDS011;70441;44.758;37.686;2024-03-23T05:42:59;9.00;;;3.35;;
78901;SDS011;70441;44.758;37.686;2024-03-23T05:44:00;11.05;;;3.92;;
78901;SDS011;70441;44.758;37.686;2024-03-23T05:45:02;11.48;;;4.40;;
78901;SDS011;70441;44.758;37.686;2024-03-23T05:46:07;15.20;;;5.03;;
78901;SDS011;70441;44.758;37.686;2024-03-23T05:47:10;16.05;;;5.95;;
78901;SDS011;70441;44.758;37.686;2024-03-23T05:48:12;13.98;;;4.72;;
78901;SDS011;70441;44.758;37.686;2024-03-23T05:49:15;11.43;;;4.15;;
78901;SDS011;70441;44.758;37.686;2024-03-23T05:50:18;12.75;;;4.45;;
78901;SDS011;70441;44.758;37.686;2024-03-23T05:51:19;11.50;;;4.20;;
78901;SDS011;70441;44.758;37.686;2024-03-23T05:52:21;11.10;;;3.97;;
78901;SDS011;70441;44.758;37.686;2024-03-23T05:53:23;10.88;;;3.88;;
78901;SDS011;70441;44.758;37.686;2024-03-23T05:54:25;9.93;;;4.03;;
78901;SDS011;70441;44.758;37.686;2024-03-23T05:55:27;10.02;;;3.70;;
78901;SDS011;70441;44.758;37.686;2024-03-23T05:56:29;10.00;;;4.45;;
78901;SDS011;70441;44.758;37.686;2024-03-23T05:57:31;11.32;;;4.47;;
78901;SDS011;70441;44.758;37.686;2024-03-23T05:58:33;12.25;;;4.55;;
78901;SDS011;70441;44.758;37.686;2024-03-23T05:59:34;11.73;;;4.55;;
78901;SDS011;70441;44.758;37.686;2024-03-23T06:00:36;12.95;;;4.90;;
78901;SDS011;70441;44.758;37.686;2024-03-23T06:01:38;10.15;;;4.15;;
78901;SDS011;70441;44.758;37.686;2024-03-23T06:02:40;10.68;;;4.30;;
78901;SDS011;70441;44.758;37.686;2024-03-23T06:03:42;11.05;;;4.35;;
78901;SDS011;70441;44.758;37.686;2024-03-23T06:04:45;10.52;;;4.05;;
78901;SDS011;70441;44.758;37.686;2024-03-23T06:06:48;10.05;;;4.05;;
78901;SDS011;70441;44.758;37.686;2024-03-23T06:07:50;10.05;;;4.50;;
78901;SDS011;70441;44.758;37.686;2024-03-23T06:08:52;9.32;;;3.95;;
78901;SDS011;70441;44.758;37.686;2024-03-23T06:09:53;12.25;;;4.22;;
78901;SDS011;70441;44.758;37.686;2024-03-23T06:10:55;12.15;;;4.75;;
78901;SDS011;70441;44.758;37.686;2024-03-23T06:11:57;10.40;;;4.22;;
78901;SDS011;70441;44.758;37.686;2024-03-23T06:12:59;11.25;;;5.28;;
78901;SDS011;70441;44.758;37.686;2024-03-23T06:14:00;10.10;;;4.32;;
78901;SDS011;70441;44.758;37.686;2024-03-23T06:15:02;12.52;;;4.45;;
78901;SDS011;70441;44.758;37.686;2024-03-23T06:16:04;11.18;;;4.72;;
78901;SDS011;70441;44.758;37.686;2024-03-23T06:17:07;10.93;;;4.60;;
78901;SDS011;70441;44.758;37.686;2024-03-23T06:18:09;10.95;;;4.45;;
78901;SDS011;70441;44.758;37.686;2024-03-23T06:19:11;9.80;;;4.30;;
78901;SDS011;70441;44.758;37.686;2024-03-23T06:20:12;10.18;;;4.07;;
78901;SDS011;70441;44.758;37.686;2024-03-23T06:21:14;9.85;;;4.05;;
78901;SDS011;70441;44.758;37.686;2024-03-23T06:22:16;10.88;;;4.18;;
78901;SDS011;70441;44.758;37.686;2024-03-23T06:23:17;9.85;;;3.90;;
78901;SDS011;70441;44.758;37.686;2024-03-23T06:24:24;9.32;;;3.60;;
78901;SDS011;70441;44.758;37.686;2024-03-23T06:25:25;9.75;;;3.53;;
78901;SDS011;70441;44.758;37.686;2024-03-23T06:26:27;8.27;;;3.85;;
78901;SDS011;70441;44.758;37.686;2024-03-23T06:27:29;11.13;;;4.18;;
78901;SDS011;70441;44.758;37.686;2024-03-23T06:28:30;10.70;;;4.90;;
78901;SDS011;70441;44.758;37.686;2024-03-23T06:29:32;12.27;;;4.40;;
78901;SDS011;70441;44.758;37.686;2024-03-23T06:30:34;10.00;;;3.78;;
78901;SDS011;70441;44.758;37.686;2024-03-23T06:31:35;10.63;;;4.13;;
78901;SDS011;70441;44.758;37.686;2024-03-23T06:32:37;10.25;;;3.63;;
78901;SDS011;70441;44.758;37.686;2024-03-23T06:33:39;10.75;;;3.88;;
78901;SDS011;70441;44.758;37.686;2024-03-23T06:34:44;9.75;;;4.03;;
78901;SDS011;70441;44.758;37.686;2024-03-23T06:35:52;11.27;;;4.18;;
78901;SDS011;70441;44.758;37.686;2024-03-23T06:36:54;9.43;;;4.07;;
78901;SDS011;70441;44.758;37.686;2024-03-23T06:37:56;9.38;;;3.85;;
78901;SDS011;70441;44.758;37.686;2024-03-23T06:38:59;9.45;;;3.92;;
78901;SDS011;70441;44.758;37.686;2024-03-23T06:40:01;8.27;;;3.78;;
78901;SDS011;70441;44.758;37.686;2024-03-23T06:41:06;7.75;;;3.58;;
78901;SDS011;70441;44.758;37.686;2024-03-23T06:42:07;9.05;;;3.63;;
78901;SDS011;70441;44.758;37.686;2024-03-23T06:43:09;10.77;;;3.70;;
78901;SDS011;70441;44.758;37.686;2024-03-23T06:44:12;9.57;;;3.65;;
78901;SDS011;70441;44.758;37.686;2024-03-23T06:45:14;9.57;;;3.08;;
78901;SDS011;70441;44.758;37.686;2024-03-23T06:46:16;9.10;;;3.83;;
78901;SDS011;70441;44.758;37.686;2024-03-23T06:47:17;9.70;;;4.07;;
78901;SDS011;70441;44.758;37.686;2024-03-23T06:48:19;9.25;;;3.67;;
78901;SDS011;70441;44.758;37.686;2024-03-23T06:50:26;9.20;;;3.53;;
78901;SDS011;70441;44.758;37.686;2024-03-23T06:51:29;8.32;;;3.78;;
78901;SDS011;70441;44.758;37.686;2024-03-23T06:52:30;10.90;;;4.35;;
78901;SDS011;70441;44.758;37.686;2024-03-23T06:53:32;9.50;;;3.83;;
78901;SDS011;70441;44.758;37.686;2024-03-23T06:54:34;9.02;;;3.80;;
78901;SDS011;70441;44.758;37.686;2024-03-23T06:55:36;9.30;;;3.83;;
78901;SDS011;70441;44.758;37.686;2024-03-23T06:56:38;9.40;;;3.38;;
78901;SDS011;70441;44.758;37.686;2024-03-23T06:57:40;10.52;;;4.28;;
78901;SDS011;70441;44.758;37.686;2024-03-23T06:58:41;9.85;;;3.75;;
78901;SDS011;70441;44.758;37.686;2024-03-23T06:59:43;9.65;;;3.88;;
78901;SDS011;70441;44.758;37.686;2024-03-23T07:00:45;11.85;;;3.83;;
78901;SDS011;70441;44.758;37.686;2024-03-23T07:01:46;11.10;;;3.78;;
78901;SDS011;70441;44.758;37.686;2024-03-23T07:02:48;9.07;;;3.70;;
78901;SDS011;70441;44.758;37.686;2024-03-23T07:03:50;10.73;;;4.65;;
78901;SDS011;70441;44.758;37.686;2024-03-23T07:04:51;8.55;;;3.17;;
78901;SDS011;70441;44.758;37.686;2024-03-23T07:05:53;9.73;;;3.38;;
78901;SDS011;70441;44.758;37.686;2024-03-23T07:06:59;9.32;;;4.32;;
78901;SDS011;70441;44.758;37.686;2024-03-23T07:08:02;11.65;;;3.80;;